ジッダ の空港の天気 - METARとTAF

キング・アブドゥルアズィーズ国際空港(ジッダ) ( OEJN / JED ) - サウジアラビア ジッダ
飛行場実況気象(Metar)
観測時間03/29 00:00 +03 (03/28 21:00 UTC)
風向・風速北西 2m/s
視程10km以上
天気現象
なし
気温26℃
湿度39%
気圧1012hPa
METAROEJN 282100Z 32004KT CAVOK 26/11 Q1012 NOSIG
過去の天気等 Google飛行場航空写真 Wunderground天気予報

過去48時間のMETAR

飛行場予報(TAF)
発表時間: 3/28 20:00 +03 (3/28 17:00 UTC)
予報対象時間: 28日21時 +03 ~ 30日3時 +03
風向・風速北 4m/s
視程10km以上
なし
29日3時 +03 ~ 29日5時 +03 に徐々に
風向・風速不定 2m/s
29日9時 +03 ~ 29日11時 +03 に徐々に
風向・風速西北西 7m/s
視程10km以上
少しの雲 雲底高度 1,220m
TAF OEJN 281700Z 2818/2924 36008KT CAVOK
BECMG 2900/2902 VRB03KT
BECMG 2906/2908 29014KT 9999 FEW040